sensor_id;sensor_type;location;lat;lon;timestamp;temperature;humidity
21744;DHT22;11034;48.556;9.342;2024-01-10T00:02:23;-5.90;99.90
21744;DHT22;11034;48.556;9.342;2024-01-10T00:04:53;-6.00;99.90
21744;DHT22;11034;48.556;9.342;2024-01-10T00:07:21;-5.90;99.90
21744;DHT22;11034;48.556;9.342;2024-01-10T00:09:49;-5.80;99.90
21744;DHT22;11034;48.556;9.342;2024-01-10T00:12:17;-5.80;99.90
21744;DHT22;11034;48.556;9.342;2024-01-10T00:14:45;-5.80;99.90
21744;DHT22;11034;48.556;9.342;2024-01-10T00:17:13;-5.80;99.90
21744;DHT22;11034;48.556;9.342;2024-01-10T00:19:41;-5.80;99.90
21744;DHT22;11034;48.556;9.342;2024-01-10T00:22:10;-5.70;99.90
21744;DHT22;11034;48.556;9.342;2024-01-10T00:24:38;-5.70;99.90
21744;DHT22;11034;48.556;9.342;2024-01-10T00:27:06;-5.70;99.90
21744;DHT22;11034;48.556;9.342;2024-01-10T00:29:35;-5.60;99.90
21744;DHT22;11034;48.556;9.342;2024-01-10T00:32:03;-5.60;99.90
21744;DHT22;11034;48.556;9.342;2024-01-10T00:34:31;-5.50;99.90
21744;DHT22;11034;48.556;9.342;2024-01-10T00:36:59;-5.50;99.90
21744;DHT22;11034;48.556;9.342;2024-01-10T00:39:29;-5.40;99.90
21744;DHT22;11034;48.556;9.342;2024-01-10T00:41:57;-5.40;99.90
21744;DHT22;11034;48.556;9.342;2024-01-10T00:44:25;-5.40;99.90
21744;DHT22;11034;48.556;9.342;2024-01-10T00:46:53;-5.40;99.90
21744;DHT22;11034;48.556;9.342;2024-01-10T00:49:21;-5.50;99.90
21744;DHT22;11034;48.556;9.342;2024-01-10T00:51:49;-5.50;99.90
21744;DHT22;11034;48.556;9.342;2024-01-10T00:54:17;-5.40;99.90
21744;DHT22;11034;48.556;9.342;2024-01-10T00:56:46;-5.50;99.90
21744;DHT22;11034;48.556;9.342;2024-01-10T00:59:14;-5.50;99.90
21744;DHT22;11034;48.556;9.342;2024-01-10T01:01:42;-5.50;99.90
21744;DHT22;11034;48.556;9.342;2024-01-10T01:04:10;-5.50;99.90
21744;DHT22;11034;48.556;9.342;2024-01-10T01:06:38;-5.50;99.90
21744;DHT22;11034;48.556;9.342;2024-01-10T01:09:06;-5.50;99.90
21744;DHT22;11034;48.556;9.342;2024-01-10T01:11:34;-5.50;99.90
21744;DHT22;11034;48.556;9.342;2024-01-10T01:14:03;-5.50;99.90
21744;DHT22;11034;48.556;9.342;2024-01-10T01:16:32;-5.40;99.90
21744;DHT22;11034;48.556;9.342;2024-01-10T01:19:00;-5.50;99.90
21744;DHT22;11034;48.556;9.342;2024-01-10T01:21:28;-5.40;99.90
21744;DHT22;11034;48.556;9.342;2024-01-10T01:23:56;-5.50;99.90
21744;DHT22;11034;48.556;9.342;2024-01-10T01:26:24;-5.40;99.90
21744;DHT22;11034;48.556;9.342;2024-01-10T01:28:53;-5.40;99.90
21744;DHT22;11034;48.556;9.342;2024-01-10T01:31:22;-5.40;99.90
21744;DHT22;11034;48.556;9.342;2024-01-10T01:33:50;-5.30;99.90
21744;DHT22;11034;48.556;9.342;2024-01-10T01:36:18;-5.40;99.90
21744;DHT22;11034;48.556;9.342;2024-01-10T01:38:47;-5.40;99.90
21744;DHT22;11034;48.556;9.342;2024-01-10T01:41:15;-5.40;99.90
21744;DHT22;11034;48.556;9.342;2024-01-10T01:43:44;-5.40;99.90
21744;DHT22;11034;48.556;9.342;2024-01-10T01:46:12;-5.40;99.90
21744;DHT22;11034;48.556;9.342;2024-01-10T01:48:42;-5.30;99.90
21744;DHT22;11034;48.556;9.342;2024-01-10T01:51:11;-5.30;99.90
21744;DHT22;11034;48.556;9.342;2024-01-10T01:53:40;-5.30;99.90
21744;DHT22;11034;48.556;9.342;2024-01-10T01:56:08;-5.30;99.90
21744;DHT22;11034;48.556;9.342;2024-01-10T01:58:37;-5.20;99.90
21744;DHT22;11034;48.556;9.342;2024-01-10T02:01:07;-5.20;99.90
21744;DHT22;11034;48.556;9.342;2024-01-10T02:03:35;-5.10;99.90
21744;DHT22;11034;48.556;9.342;2024-01-10T02:06:05;-5.10;99.90
21744;DHT22;11034;48.556;9.342;2024-01-10T02:08:34;-5.10;99.90
21744;DHT22;11034;48.556;9.342;2024-01-10T02:11:02;-5.00;99.90
21744;DHT22;11034;48.556;9.342;2024-01-10T02:13:32;-5.00;99.90
21744;DHT22;11034;48.556;9.342;2024-01-10T02:16:00;-5.00;99.90
21744;DHT22;11034;48.556;9.342;2024-01-10T02:18:32;-5.10;99.90
21744;DHT22;11034;48.556;9.342;2024-01-10T02:21:02;-5.10;99.90
21744;DHT22;11034;48.556;9.342;2024-01-10T02:23:31;-5.10;99.90
21744;DHT22;11034;48.556;9.342;2024-01-10T02:26:01;-5.10;99.90
21744;DHT22;11034;48.556;9.342;2024-01-10T02:28:29;-5.10;99.90
21744;DHT22;11034;48.556;9.342;2024-01-10T02:30:57;-5.10;99.90
21744;DHT22;11034;48.556;9.342;2024-01-10T02:33:25;-5.00;99.90
21744;DHT22;11034;48.556;9.342;2024-01-10T02:35:53;-5.00;99.90
21744;DHT22;11034;48.556;9.342;2024-01-10T02:38:21;-5.00;99.90
21744;DHT22;11034;48.556;9.342;2024-01-10T02:40:50;-4.90;99.90
21744;DHT22;11034;48.556;9.342;2024-01-10T02:43:20;-5.00;99.90
21744;DHT22;11034;48.556;9.342;2024-01-10T02:45:48;-5.00;99.90
21744;DHT22;11034;48.556;9.342;2024-01-10T02:48:16;-4.90;99.90
21744;DHT22;11034;48.556;9.342;2024-01-10T02:50:44;-4.90;99.90
21744;DHT22;11034;48.556;9.342;2024-01-10T02:53:12;-4.90;99.90
21744;DHT22;11034;48.556;9.342;2024-01-10T02:55:40;-4.80;99.90
21744;DHT22;11034;48.556;9.342;2024-01-10T02:58:08;-4.80;99.90
21744;DHT22;11034;48.556;9.342;2024-01-10T03:00:38;-4.80;99.90
21744;DHT22;11034;48.556;9.342;2024-01-10T03:03:05;-4.80;99.90
21744;DHT22;11034;48.556;9.342;2024-01-10T03:05:33;-4.80;99.90
21744;DHT22;11034;48.556;9.342;2024-01-10T03:08:01;-4.70;99.90
21744;DHT22;11034;48.556;9.342;2024-01-10T03:10:31;-4.70;99.90
21744;DHT22;11034;48.556;9.342;2024-01-10T03:12:59;-4.70;99.90
21744;DHT22;11034;48.556;9.342;2024-01-10T03:15:27;-4.70;99.90
21744;DHT22;11034;48.556;9.342;2024-01-10T03:17:56;-4.70;99.90
21744;DHT22;11034;48.556;9.342;2024-01-10T03:20:24;-4.70;99.90
21744;DHT22;11034;48.556;9.342;2024-01-10T03:22:52;-4.70;99.90
21744;DHT22;11034;48.556;9.342;2024-01-10T03:25:20;-4.80;99.90
21744;DHT22;11034;48.556;9.342;2024-01-10T03:27:48;-4.80;99.90
21744;DHT22;11034;48.556;9.342;2024-01-10T03:30:16;-4.80;99.90
21744;DHT22;11034;48.556;9.342;2024-01-10T03:32:46;-4.70;99.90
21744;DHT22;11034;48.556;9.342;2024-01-10T03:35:16;-4.70;99.90
21744;DHT22;11034;48.556;9.342;2024-01-10T03:37:44;-4.90;99.90
21744;DHT22;11034;48.556;9.342;2024-01-10T03:40:12;-4.90;99.90
21744;DHT22;11034;48.556;9.342;2024-01-10T03:42:40;-4.90;99.90
21744;DHT22;11034;48.556;9.342;2024-01-10T03:45:09;-4.90;99.90
21744;DHT22;11034;48.556;9.342;2024-01-10T03:47:37;-4.90;99.90
21744;DHT22;11034;48.556;9.342;2024-01-10T03:50:06;-4.80;99.90
21744;DHT22;11034;48.556;9.342;2024-01-10T03:52:36;-4.80;99.90
21744;DHT22;11034;48.556;9.342;2024-01-10T03:55:04;-4.70;99.90
21744;DHT22;11034;48.556;9.342;2024-01-10T03:57:33;-4.80;99.90
21744;DHT22;11034;48.556;9.342;2024-01-10T04:00:01;-4.80;99.90
21744;DHT22;11034;48.556;9.342;2024-01-10T04:02:29;-4.80;99.90
21744;DHT22;11034;48.556;9.342;2024-01-10T04:04:57;-4.80;99.90
21744;DHT22;11034;48.556;9.342;2024-01-10T04:07:27;-4.80;99.90
21744;DHT22;11034;48.556;9.342;2024-01-10T04:09:56;-4.90;99.90
21744;DHT22;11034;48.556;9.342;2024-01-10T04:12:24;-4.90;99.90
21744;DHT22;11034;48.556;9.342;2024-01-10T04:14:52;-4.90;99.90
21744;DHT22;11034;48.556;9.342;2024-01-10T04:17:20;-4.90;99.90
21744;DHT22;11034;48.556;9.342;2024-01-10T04:19:48;-4.90;99.90
21744;DHT22;11034;48.556;9.342;2024-01-10T04:22:18;-4.90;99.90
21744;DHT22;11034;48.556;9.342;2024-01-10T04:24:46;-4.90;99.90
21744;DHT22;11034;48.556;9.342;2024-01-10T04:27:16;-4.80;99.90
21744;DHT22;11034;48.556;9.342;2024-01-10T04:29:44;-4.80;99.90
21744;DHT22;11034;48.556;9.342;2024-01-10T04:32:12;-4.70;99.90
21744;DHT22;11034;48.556;9.342;2024-01-10T04:34:41;-4.70;99.90
21744;DHT22;11034;48.556;9.342;2024-01-10T04:37:09;-4.70;99.90
21744;DHT22;11034;48.556;9.342;2024-01-10T04:39:37;-4.80;99.90
21744;DHT22;11034;48.556;9.342;2024-01-10T04:42:07;-4.70;99.90
21744;DHT22;11034;48.556;9.342;2024-01-10T04:44:36;-4.80;99.90
21744;DHT22;11034;48.556;9.342;2024-01-10T04:47:05;-4.80;99.90
21744;DHT22;11034;48.556;9.342;2024-01-10T04:49:34;-4.90;99.90
21744;DHT22;11034;48.556;9.342;2024-01-10T04:52:02;-4.90;99.90
21744;DHT22;11034;48.556;9.342;2024-01-10T04:54:30;-4.90;99.90
21744;DHT22;11034;48.556;9.342;2024-01-10T04:56:59;-4.90;99.90
21744;DHT22;11034;48.556;9.342;2024-01-10T04:59:27;-5.00;99.90
21744;DHT22;11034;48.556;9.342;2024-01-10T05:01:56;-5.00;99.90
21744;DHT22;11034;48.556;9.342;2024-01-10T05:04:24;-5.00;99.90
21744;DHT22;11034;48.556;9.342;2024-01-10T05:06:52;-5.00;99.90
21744;DHT22;11034;48.556;9.342;2024-01-10T05:09:20;-5.00;99.90
21744;DHT22;11034;48.556;9.342;2024-01-10T05:11:49;-5.00;99.90
21744;DHT22;11034;48.556;9.342;2024-01-10T05:14:18;-5.00;99.90
21744;DHT22;11034;48.556;9.342;2024-01-10T05:16:46;-5.00;99.90
21744;DHT22;11034;48.556;9.342;2024-01-10T05:19:16;-4.90;99.90
21744;DHT22;11034;48.556;9.342;2024-01-10T05:21:44;-4.90;99.90
21744;DHT22;11034;48.556;9.342;2024-01-10T05:24:12;-4.90;99.90
21744;DHT22;11034;48.556;9.342;2024-01-10T05:26:41;-4.80;99.90
21744;DHT22;11034;48.556;9.342;2024-01-10T05:29:09;-4.80;99.90
21744;DHT22;11034;48.556;9.342;2024-01-10T05:31:37;-4.80;99.90
21744;DHT22;11034;48.556;9.342;2024-01-10T05:34:08;-4.80;99.90
21744;DHT22;11034;48.556;9.342;2024-01-10T05:36:37;-4.80;99.90
21744;DHT22;11034;48.556;9.342;2024-01-10T05:39:05;-4.80;99.90
21744;DHT22;11034;48.556;9.342;2024-01-10T05:41:34;-4.90;99.90
21744;DHT22;11034;48.556;9.342;2024-01-10T05:44:06;-4.90;99.90
21744;DHT22;11034;48.556;9.342;2024-01-10T05:46:34;-5.00;99.90
21744;DHT22;11034;48.556;9.342;2024-01-10T05:49:02;-5.00;99.90
21744;DHT22;11034;48.556;9.342;2024-01-10T05:51:31;-4.90;99.90
21744;DHT22;11034;48.556;9.342;2024-01-10T05:54:00;-5.00;99.90
21744;DHT22;11034;48.556;9.342;2024-01-10T05:56:28;-5.00;99.90
21744;DHT22;11034;48.556;9.342;2024-01-10T05:58:56;-5.00;99.90
21744;DHT22;11034;48.556;9.342;2024-01-10T06:01:24;-5.00;99.90
21744;DHT22;11034;48.556;9.342;2024-01-10T06:03:52;-5.00;99.90
21744;DHT22;11034;48.556;9.342;2024-01-10T06:06:20;-4.60;99.90
21744;DHT22;11034;48.556;9.342;2024-01-10T06:08:49;-4.20;99.90
21744;DHT22;11034;48.556;9.342;2024-01-10T06:11:19;-4.20;99.90
21744;DHT22;11034;48.556;9.342;2024-01-10T06:13:48;-4.40;99.90
21744;DHT22;11034;48.556;9.342;2024-01-10T06:16:23;-4.60;99.90
21744;DHT22;11034;48.556;9.342;2024-01-10T06:18:51;-4.70;99.90
21744;DHT22;11034;48.556;9.342;2024-01-10T06:21:19;-4.90;99.90
21744;DHT22;11034;48.556;9.342;2024-01-10T06:23:47;-5.00;99.90
21744;DHT22;11034;48.556;9.342;2024-01-10T06:26:15;-5.20;99.90
21744;DHT22;11034;48.556;9.342;2024-01-10T06:28:44;-5.30;99.90
21744;DHT22;11034;48.556;9.342;2024-01-10T06:31:13;-5.30;99.90
21744;DHT22;11034;48.556;9.342;2024-01-10T06:33:41;-5.50;99.90
21744;DHT22;11034;48.556;9.342;2024-01-10T06:36:09;-5.50;99.90
21744;DHT22;11034;48.556;9.342;2024-01-10T06:38:38;-5.70;99.90
21744;DHT22;11034;48.556;9.342;2024-01-10T06:41:08;-5.70;99.90
21744;DHT22;11034;48.556;9.342;2024-01-10T06:43:36;-5.80;99.90
21744;DHT22;11034;48.556;9.342;2024-01-10T06:46:06;-5.90;99.90
21744;DHT22;11034;48.556;9.342;2024-01-10T06:48:34;-5.90;99.90
21744;DHT22;11034;48.556;9.342;2024-01-10T06:51:10;-6.00;99.90
21744;DHT22;11034;48.556;9.342;2024-01-10T06:53:39;-6.10;99.90
21744;DHT22;11034;48.556;9.342;2024-01-10T06:56:07;-6.10;99.90
21744;DHT22;11034;48.556;9.342;2024-01-10T06:58:36;-6.00;99.90
21744;DHT22;11034;48.556;9.342;2024-01-10T07:01:11;-5.60;99.90
21744;DHT22;11034;48.556;9.342;2024-01-10T07:03:40;-5.70;99.90
21744;DHT22;11034;48.556;9.342;2024-01-10T07:06:09;-5.80;99.90
21744;DHT22;11034;48.556;9.342;2024-01-10T07:08:37;-5.90;99.90
21744;DHT22;11034;48.556;9.342;2024-01-10T07:11:07;-6.00;99.90
21744;DHT22;11034;48.556;9.342;2024-01-10T07:13:36;-6.00;99.90
21744;DHT22;11034;48.556;9.342;2024-01-10T07:16:06;-5.90;99.90
21744;DHT22;11034;48.556;9.342;2024-01-10T07:18:34;-5.90;99.90
21744;DHT22;11034;48.556;9.342;2024-01-10T07:21:02;-5.80;99.90
21744;DHT22;11034;48.556;9.342;2024-01-10T07:23:30;-5.80;99.90
21744;DHT22;11034;48.556;9.342;2024-01-10T07:25:59;-5.70;99.90
21744;DHT22;11034;48.556;9.342;2024-01-10T07:28:27;-5.60;99.90
21744;DHT22;11034;48.556;9.342;2024-01-10T07:30:55;-5.50;99.90
21744;DHT22;11034;48.556;9.342;2024-01-10T07:33:25;-5.40;99.90
21744;DHT22;11034;48.556;9.342;2024-01-10T07:35:53;-5.40;99.90
21744;DHT22;11034;48.556;9.342;2024-01-10T07:38:21;-5.20;99.90
21744;DHT22;11034;48.556;9.342;2024-01-10T07:40:50;-5.10;99.90
21744;DHT22;11034;48.556;9.342;2024-01-10T07:43:18;-5.00;99.90
21744;DHT22;11034;48.556;9.342;2024-01-10T07:45:46;-5.00;99.90
21744;DHT22;11034;48.556;9.342;2024-01-10T07:48:14;-4.90;99.90
21744;DHT22;11034;48.556;9.342;2024-01-10T07:50:44;-4.80;99.90
21744;DHT22;11034;48.556;9.342;2024-01-10T07:53:12;-4.90;99.90
21744;DHT22;11034;48.556;9.342;2024-01-10T07:55:40;-4.90;99.90
21744;DHT22;11034;48.556;9.342;2024-01-10T07:58:08;-4.90;99.90
21744;DHT22;11034;48.556;9.342;2024-01-10T08:00:36;-4.80;99.90
21744;DHT22;11034;48.556;9.342;2024-01-10T08:03:05;-4.70;99.90
21744;DHT22;11034;48.556;9.342;2024-01-10T08:05:33;-4.50;99.90
21744;DHT22;11034;48.556;9.342;2024-01-10T08:08:03;-4.50;99.90
21744;DHT22;11034;48.556;9.342;2024-01-10T08:10:32;-4.40;99.90
21744;DHT22;11034;48.556;9.342;2024-01-10T08:13:02;-4.50;99.90
21744;DHT22;11034;48.556;9.342;2024-01-10T08:15:31;-4.60;99.90
21744;DHT22;11034;48.556;9.342;2024-01-10T08:18:01;-4.60;99.90
21744;DHT22;11034;48.556;9.342;2024-01-10T08:20:29;-4.60;99.90
21744;DHT22;11034;48.556;9.342;2024-01-10T08:22:57;-4.70;99.90
21744;DHT22;11034;48.556;9.342;2024-01-10T08:25:27;-4.80;99.90
21744;DHT22;11034;48.556;9.342;2024-01-10T08:27:56;-4.80;99.90
21744;DHT22;11034;48.556;9.342;2024-01-10T08:30:24;-4.70;99.90
21744;DHT22;11034;48.556;9.342;2024-01-10T08:32:52;-4.70;99.90
21744;DHT22;11034;48.556;9.342;2024-01-10T08:35:21;-4.70;99.90
21744;DHT22;11034;48.556;9.342;2024-01-10T08:37:54;-4.60;99.90
21744;DHT22;11034;48.556;9.342;2024-01-10T08:40:22;-4.70;99.90
21744;DHT22;11034;48.556;9.342;2024-01-10T08:42:53;-4.70;99.90
21744;DHT22;11034;48.556;9.342;2024-01-10T08:45:21;-4.60;99.90
21744;DHT22;11034;48.556;9.342;2024-01-10T08:47:51;-4.60;99.90
21744;DHT22;11034;48.556;9.342;2024-01-10T08:50:20;-4.60;99.90
21744;DHT22;11034;48.556;9.342;2024-01-10T08:52:49;-4.60;99.90
21744;DHT22;11034;48.556;9.342;2024-01-10T08:55:17;-4.50;99.90
21744;DHT22;11034;48.556;9.342;2024-01-10T08:57:45;-4.50;99.90
21744;DHT22;11034;48.556;9.342;2024-01-10T09:00:16;-4.40;99.90
21744;DHT22;11034;48.556;9.342;2024-01-10T09:02:44;-4.40;99.90
21744;DHT22;11034;48.556;9.342;2024-01-10T09:05:12;-4.40;99.90
21744;DHT22;11034;48.556;9.342;2024-01-10T09:07:41;-4.40;99.90
21744;DHT22;11034;48.556;9.342;2024-01-10T09:10:09;-4.30;99.90
21744;DHT22;11034;48.556;9.342;2024-01-10T09:12:38;-4.20;99.90
21744;DHT22;11034;48.556;9.342;2024-01-10T09:15:10;-4.20;99.90
21744;DHT22;11034;48.556;9.342;2024-01-10T09:17:42;-4.30;99.90
21744;DHT22;11034;48.556;9.342;2024-01-10T09:20:10;-4.30;99.90
21744;DHT22;11034;48.556;9.342;2024-01-10T09:22:39;-4.30;99.90
21744;DHT22;11034;48.556;9.342;2024-01-10T09:25:07;-4.30;99.90
21744;DHT22;11034;48.556;9.342;2024-01-10T09:27:36;-4.20;99.90
21744;DHT22;11034;48.556;9.342;2024-01-10T09:30:05;-4.20;99.90
21744;DHT22;11034;48.556;9.342;2024-01-10T09:32:36;-4.00;99.90
21744;DHT22;11034;48.556;9.342;2024-01-10T09:35:06;-4.00;99.90
21744;DHT22;11034;48.556;9.342;2024-01-10T09:37:35;-3.80;99.90
21744;DHT22;11034;48.556;9.342;2024-01-10T09:40:03;-3.30;99.90
21744;DHT22;11034;48.556;9.342;2024-01-10T09:42:33;-3.40;99.90
21744;DHT22;11034;48.556;9.342;2024-01-10T09:45:04;-3.40;99.90
21744;DHT22;11034;48.556;9.342;2024-01-10T09:47:33;-3.50;99.90
21744;DHT22;11034;48.556;9.342;2024-01-10T09:50:06;-3.50;99.90
21744;DHT22;11034;48.556;9.342;2024-01-10T09:52:41;-3.60;99.90
21744;DHT22;11034;48.556;9.342;2024-01-10T09:55:10;-3.60;99.90
21744;DHT22;11034;48.556;9.342;2024-01-10T09:57:40;-3.50;99.90
21744;DHT22;11034;48.556;9.342;2024-01-10T10:00:11;-3.40;99.90
21744;DHT22;11034;48.556;9.342;2024-01-10T10:02:40;-3.40;99.90
21744;DHT22;11034;48.556;9.342;2024-01-10T10:05:13;-3.30;99.90
21744;DHT22;11034;48.556;9.342;2024-01-10T10:07:46;-3.30;99.90
21744;DHT22;11034;48.556;9.342;2024-01-10T10:10:15;-3.20;99.90
21744;DHT22;11034;48.556;9.342;2024-01-10T10:12:44;-3.20;99.90
21744;DHT22;11034;48.556;9.342;2024-01-10T10:15:14;-3.20;99.90
21744;DHT22;11034;48.556;9.342;2024-01-10T10:17:44;-3.10;99.90
21744;DHT22;11034;48.556;9.342;2024-01-10T10:20:20;-3.10;99.90
21744;DHT22;11034;48.556;9.342;2024-01-10T10:23:00;-3.00;99.90
21744;DHT22;11034;48.556;9.342;2024-01-10T10:25:30;-2.90;99.90
21744;DHT22;11034;48.556;9.342;2024-01-10T10:27:59;-2.90;99.90
21744;DHT22;11034;48.556;9.342;2024-01-10T10:30:32;-2.80;99.90
21744;DHT22;11034;48.556;9.342;2024-01-10T10:33:07;-2.70;99.90
21744;DHT22;11034;48.556;9.342;2024-01-10T10:35:37;-2.50;99.90
21744;DHT22;11034;48.556;9.342;2024-01-10T10:38:12;-2.20;99.90
21744;DHT22;11034;48.556;9.342;2024-01-10T10:40:55;-2.10;99.90
21744;DHT22;11034;48.556;9.342;2024-01-10T10:43:34;-2.20;99.90
21744;DHT22;11034;48.556;9.342;2024-01-10T10:46:05;-2.30;99.90
21744;DHT22;11034;48.556;9.342;2024-01-10T10:48:34;-2.20;99.90
21744;DHT22;11034;48.556;9.342;2024-01-10T10:51:09;-2.30;99.90
21744;DHT22;11034;48.556;9.342;2024-01-10T10:53:38;-2.20;99.90
21744;DHT22;11034;48.556;9.342;2024-01-10T10:56:08;-2.10;99.90
21744;DHT22;11034;48.556;9.342;2024-01-10T10:58:38;-2.00;99.90
21744;DHT22;11034;48.556;9.342;2024-01-10T11:01:08;-2.00;99.90
21744;DHT22;11034;48.556;9.342;2024-01-10T11:03:37;-2.10;99.90
21744;DHT22;11034;48.556;9.342;2024-01-10T11:06:08;-2.10;99.90
21744;DHT22;11034;48.556;9.342;2024-01-10T11:08:39;-2.10;99.90
21744;DHT22;11034;48.556;9.342;2024-01-10T11:11:17;-2.00;99.90
21744;DHT22;11034;48.556;9.342;2024-01-10T11:14:01;-2.00;99.90
21744;DHT22;11034;48.556;9.342;2024-01-10T11:17:01;-2.00;99.90
21744;DHT22;11034;48.556;9.342;2024-01-10T11:19:51;-1.80;99.90
21744;DHT22;11034;48.556;9.342;2024-01-10T11:22:39;-1.90;99.90
21744;DHT22;11034;48.556;9.342;2024-01-10T11:25:11;-1.90;99.90
21744;DHT22;11034;48.556;9.342;2024-01-10T11:27:39;-1.80;99.90
21744;DHT22;11034;48.556;9.342;2024-01-10T11:30:08;-1.70;99.90
21744;DHT22;11034;48.556;9.342;2024-01-10T11:32:40;-1.60;99.90
21744;DHT22;11034;48.556;9.342;2024-01-10T11:35:35;-1.50;99.90
21744;DHT22;11034;48.556;9.342;2024-01-10T11:38:05;-1.50;99.90
21744;DHT22;11034;48.556;9.342;2024-01-10T11:40:46;-1.40;99.90
21744;DHT22;11034;48.556;9.342;2024-01-10T11:43:15;-1.40;99.90
21744;DHT22;11034;48.556;9.342;2024-01-10T11:45:54;-1.40;99.90
21744;DHT22;11034;48.556;9.342;2024-01-10T11:48:26;-1.50;99.90
21744;DHT22;11034;48.556;9.342;2024-01-10T11:50:57;-1.40;99.90
21744;DHT22;11034;48.556;9.342;2024-01-10T11:53:40;-1.40;99.90
21744;DHT22;11034;48.556;9.342;2024-01-10T11:56:10;-1.40;99.90
21744;DHT22;11034;48.556;9.342;2024-01-10T11:58:55;-1.30;99.90
21744;DHT22;11034;48.556;9.342;2024-01-10T12:01:28;-1.20;99.90
21744;DHT22;11034;48.556;9.342;2024-01-10T12:03:58;-1.20;99.90
21744;DHT22;11034;48.556;9.342;2024-01-10T12:06:45;-1.20;99.90
21744;DHT22;11034;48.556;9.342;2024-01-10T12:09:15;-1.20;99.90
21744;DHT22;11034;48.556;9.342;2024-01-10T12:11:43;-1.20;99.90
21744;DHT22;11034;48.556;9.342;2024-01-10T12:14:11;-1.20;99.90
21744;DHT22;11034;48.556;9.342;2024-01-10T12:16:40;-1.10;99.90
21744;DHT22;11034;48.556;9.342;2024-01-10T12:19:08;-1.10;99.90
21744;DHT22;11034;48.556;9.342;2024-01-10T12:21:36;-1.10;99.90
21744;DHT22;11034;48.556;9.342;2024-01-10T12:24:05;-1.20;99.90
21744;DHT22;11034;48.556;9.342;2024-01-10T12:26:35;-1.20;99.90
21744;DHT22;11034;48.556;9.342;2024-01-10T12:29:03;-1.10;99.90
21744;DHT22;11034;48.556;9.342;2024-01-10T12:31:37;-1.10;99.90
21744;DHT22;11034;48.556;9.342;2024-01-10T12:34:07;-1.10;99.90
21744;DHT22;11034;48.556;9.342;2024-01-10T12:36:37;-1.00;99.90
21744;DHT22;11034;48.556;9.342;2024-01-10T12:39:05;-1.00;99.90
21744;DHT22;11034;48.556;9.342;2024-01-10T12:41:36;-1.00;99.90
21744;DHT22;11034;48.556;9.342;2024-01-10T12:44:04;-1.00;99.90
21744;DHT22;11034;48.556;9.342;2024-01-10T12:46:33;-0.90;99.90
21744;DHT22;11034;48.556;9.342;2024-01-10T12:49:03;-0.90;99.90
21744;DHT22;11034;48.556;9.342;2024-01-10T12:51:33;-0.80;99.90
21744;DHT22;11034;48.556;9.342;2024-01-10T12:54:03;-0.80;99.90
21744;DHT22;11034;48.556;9.342;2024-01-10T12:56:31;-0.90;99.90
21744;DHT22;11034;48.556;9.342;2024-01-10T12:59:01;-0.80;99.90
21744;DHT22;11034;48.556;9.342;2024-01-10T13:01:29;-0.90;99.90
21744;DHT22;11034;48.556;9.342;2024-01-10T13:03:57;-0.80;99.90
21744;DHT22;11034;48.556;9.342;2024-01-10T13:06:26;-0.80;99.90
21744;DHT22;11034;48.556;9.342;2024-01-10T13:08:55;-0.80;99.90
21744;DHT22;11034;48.556;9.342;2024-01-10T13:11:23;-0.80;99.90
21744;DHT22;11034;48.556;9.342;2024-01-10T13:13:51;-0.80;99.90
21744;DHT22;11034;48.556;9.342;2024-01-10T13:16:20;-0.80;99.90
21744;DHT22;11034;48.556;9.342;2024-01-10T13:18:49;-0.80;99.90
21744;DHT22;11034;48.556;9.342;2024-01-10T13:21:17;-0.80;99.90
21744;DHT22;11034;48.556;9.342;2024-01-10T13:23:45;-0.80;99.90
21744;DHT22;11034;48.556;9.342;2024-01-10T13:26:13;-0.80;99.90
21744;DHT22;11034;48.556;9.342;2024-01-10T13:28:43;-0.90;99.90
21744;DHT22;11034;48.556;9.342;2024-01-10T13:31:11;-1.00;99.90
21744;DHT22;11034;48.556;9.342;2024-01-10T13:33:41;-1.00;99.90
21744;DHT22;11034;48.556;9.342;2024-01-10T13:36:13;-1.00;99.90
21744;DHT22;11034;48.556;9.342;2024-01-10T13:38:42;-1.10;99.90
21744;DHT22;11034;48.556;9.342;2024-01-10T13:41:10;-1.10;99.90
21744;DHT22;11034;48.556;9.342;2024-01-10T13:43:38;-1.00;99.90
21744;DHT22;11034;48.556;9.342;2024-01-10T13:46:07;-1.10;99.90
21744;DHT22;11034;48.556;9.342;2024-01-10T13:48:36;-1.10;99.90
21744;DHT22;11034;48.556;9.342;2024-01-10T13:51:06;-1.20;99.90
21744;DHT22;11034;48.556;9.342;2024-01-10T13:53:36;-1.30;99.90
21744;DHT22;11034;48.556;9.342;2024-01-10T13:56:05;-1.40;99.90
21744;DHT22;11034;48.556;9.342;2024-01-10T13:58:34;-1.40;99.90
21744;DHT22;11034;48.556;9.342;2024-01-10T14:01:02;-1.50;99.90
21744;DHT22;11034;48.556;9.342;2024-01-10T14:03:30;-1.50;99.90
21744;DHT22;11034;48.556;9.342;2024-01-10T14:05:59;-1.60;99.90
21744;DHT22;11034;48.556;9.342;2024-01-10T14:08:30;-1.60;99.90
21744;DHT22;11034;48.556;9.342;2024-01-10T14:10:58;-1.60;99.90
21744;DHT22;11034;48.556;9.342;2024-01-10T14:13:26;-1.70;99.90
21744;DHT22;11034;48.556;9.342;2024-01-10T14:15:54;-1.70;99.90
21744;DHT22;11034;48.556;9.342;2024-01-10T14:18:22;-1.70;99.90
21744;DHT22;11034;48.556;9.342;2024-01-10T14:20:50;-1.80;99.90
21744;DHT22;11034;48.556;9.342;2024-01-10T14:23:18;-1.80;99.90
21744;DHT22;11034;48.556;9.342;2024-01-10T14:25:48;-1.80;99.90
21744;DHT22;11034;48.556;9.342;2024-01-10T14:28:19;-1.80;99.90
21744;DHT22;11034;48.556;9.342;2024-01-10T14:30:50;-1.80;99.90
21744;DHT22;11034;48.556;9.342;2024-01-10T14:33:27;-1.90;99.90
21744;DHT22;11034;48.556;9.342;2024-01-10T14:35:56;-1.90;99.90
21744;DHT22;11034;48.556;9.342;2024-01-10T14:38:24;-1.90;99.90
21744;DHT22;11034;48.556;9.342;2024-01-10T14:40:53;-1.90;99.90
21744;DHT22;11034;48.556;9.342;2024-01-10T14:43:22;-1.60;99.90
21744;DHT22;11034;48.556;9.342;2024-01-10T14:45:50;-1.10;99.90
21744;DHT22;11034;48.556;9.342;2024-01-10T14:48:18;-0.50;99.90
21744;DHT22;11034;48.556;9.342;2024-01-10T14:50:47;0.00;99.90
21744;DHT22;11034;48.556;9.342;2024-01-10T14:53:15;0.00;99.90
21744;DHT22;11034;48.556;9.342;2024-01-10T14:55:43;-0.50;99.90
21744;DHT22;11034;48.556;9.342;2024-01-10T14:58:13;-0.80;99.90
21744;DHT22;11034;48.556;9.342;2024-01-10T15:00:41;-1.00;99.90
21744;DHT22;11034;48.556;9.342;2024-01-10T15:03:12;-1.30;99.90
21744;DHT22;11034;48.556;9.342;2024-01-10T15:05:52;-1.60;99.90
21744;DHT22;11034;48.556;9.342;2024-01-10T15:08:21;-1.80;99.90
21744;DHT22;11034;48.556;9.342;2024-01-10T15:10:50;-2.00;99.90
21744;DHT22;11034;48.556;9.342;2024-01-10T15:13:19;-2.10;99.90
21744;DHT22;11034;48.556;9.342;2024-01-10T15:15:47;-2.30;99.90
21744;DHT22;11034;48.556;9.342;2024-01-10T15:18:15;-2.40;99.90
21744;DHT22;11034;48.556;9.342;2024-01-10T15:20:44;-2.50;99.90
21744;DHT22;11034;48.556;9.342;2024-01-10T15:23:12;-2.60;99.90
21744;DHT22;11034;48.556;9.342;2024-01-10T15:25:40;-2.70;99.90
21744;DHT22;11034;48.556;9.342;2024-01-10T15:28:08;-2.80;99.90
21744;DHT22;11034;48.556;9.342;2024-01-10T15:30:38;-2.90;99.90
21744;DHT22;11034;48.556;9.342;2024-01-10T15:33:14;-2.90;99.90
21744;DHT22;11034;48.556;9.342;2024-01-10T15:35:42;-2.90;99.90
21744;DHT22;11034;48.556;9.342;2024-01-10T15:38:10;-2.90;99.90
21744;DHT22;11034;48.556;9.342;2024-01-10T15:40:39;-3.00;99.90
21744;DHT22;11034;48.556;9.342;2024-01-10T15:43:08;-3.10;99.90
21744;DHT22;11034;48.556;9.342;2024-01-10T15:45:38;-3.10;99.90